Latest Weather Observations for Croker Island Airport

IDD60801

Issued at 11:31 pm CST Friday 4 September 2015 (issued every 30 minutes, with the page automatically refreshed every 10 minutes)

About weather observations | Map of weather stations | Latest weather observations for NT | Other Formats
Station Details ID: 014308 Name: CROKER ISLAND AIRPORT Lat: -11.16 Lon: 132.48 Height: 9.2 m
Data from the previous 72 hours. | See also: Recent months for locations in Northern Territory
Date/Time
CST
Temp
°C
App
Temp
°C
Dew
Point
Rel
Hum
%
Delta-T
°C
Wind Press
QNH
hPa
Press
MSL
hPa
Rain
since 9 am
mm
Dir
 
Spd
km/h
Gust
km/h
Spd
kts
Gust
kts
04/11:30pm 23.1 27.0 20.4 85 1.7 CALM 0 0 0 0 1016.3 1016.2 0.0
04/11:00pm 23.0 26.2 19.8 82 2.1 ENE 2 4 1 2 1016.3 1016.2 0.0
04/10:30pm 22.9 26.7 20.1 84 1.8 CALM 0 6 0 3 1016.2 1016.1 0.0
04/10:00pm 22.9 26.5 19.7 82 2.1 CALM 0 0 0 0 1015.9 1015.8 0.0
04/09:30pm 23.6 26.1 19.1 76 2.9 ENE 4 4 2 2 1015.8 1015.7 0.0
04/09:00pm 24.2 27.2 19.3 74 3.1 ENE 2 4 1 2 1015.5 1015.4 0.0
04/08:30pm 25.4 28.2 20.4 74 3.3 NE 6 7 3 4 1015.0 1014.9 0.0
04/08:00pm 25.1 28.3 20.4 75 3.1 ENE 4 6 2 3 1014.7 1014.6 0.0
04/07:30pm 25.3 28.8 20.3 74 3.3 ENE 2 4 1 2 1014.4 1014.3 0.0
04/07:00pm 26.2 29.5 20.8 72 3.6 ENE 4 7 2 4 1014.3 1014.2 0.0
04/06:30pm 26.9 28.6 21.0 70 3.9 NE 13 20 7 11 1013.9 1013.8 0.0
04/06:00pm 27.9 28.9 20.2 63 5.0 ENE 15 24 8 13 1013.6 1013.5 0.0
04/05:30pm 28.4 27.9 19.1 57 6.0 NE 20 32 11 17 1013.5 1013.4 0.0
04/05:00pm 29.0 29.1 20.4 59 5.7 ENE 20 28 11 15 1013.5 1013.4 0.0
04/04:30pm 29.2 29.4 20.6 59 5.7 ENE 20 30 11 16 1013.6 1013.5 0.0
04/04:00pm 29.6 29.9 20.7 58 5.9 E 20 30 11 16 1013.5 1013.4 0.0
04/03:30pm 30.4 30.9 20.9 57 6.3 E 19 28 10 15 1013.7 1013.6 0.0
04/03:00pm 29.8 28.5 19.8 55 6.6 ENE 26 39 14 21 1014.1 1014.0 0.0
04/02:30pm 29.9 29.0 19.9 55 6.6 E 24 35 13 19 1014.5 1014.4 0.0
04/02:00pm 30.2 29.9 20.4 55 6.5 ENE 22 33 12 18 1014.9 1014.8 0.0
04/01:30pm 30.7 29.1 20.0 52 7.0 E 28 39 15 21 1015.3 1015.2 0.0
04/01:00pm 30.6 31.9 21.7 59 6.0 E 17 28 9 15 1015.6 1015.5 0.0
04/12:30pm 30.7 31.4 21.2 57 6.4 ESE 19 30 10 16 1015.9 1015.8 0.0
04/12:00pm 30.0 30.1 20.3 56 6.4 ENE 20 32 11 17 1016.5 1016.4 0.0
04/11:30am 30.5 30.8 20.7 55 6.5 ENE 20 30 11 16 1016.8 1016.7 0.0
04/11:00am 29.5 29.3 19.8 56 6.4 ENE 20 30 11 16 1017.1 1017.0 0.0
04/10:30am 28.9 29.0 20.4 60 5.6 E 20 28 11 15 1017.3 1017.2 0.0
04/10:00am 28.8 30.7 22.1 67 4.5 E 15 20 8 11 1017.3 1017.2 0.0
04/09:30am 27.4 29.2 21.2 69 4.1 ESE 13 20 7 11 1017.3 1017.2 0.0
04/09:00am 27.9 30.4 21.7 69 4.1 ESE 11 19 6 10 1017.2 1017.1 0.0
04/08:30am 26.6 28.4 21.1 72 3.6 E 13 19 7 10 1016.9 1016.8 0.0
04/08:00am 26.0 29.5 21.9 78 2.7 E 6 9 3 5 1016.7 1016.6 0.0
04/07:30am 24.8 28.4 22.1 85 1.8 E 6 7 3 4 1016.5 1016.4 0.0
04/07:00am 23.1 26.4 21.5 91 1.1 ENE 6 7 3 4 1016.3 1016.2 0.0
04/06:30am 22.4 25.6 20.5 89 1.2 ENE 4 6 2 3 1016.1 1016.0 0.0
04/06:00am 22.9 26.6 20.8 88 1.4 ENE 2 4 1 2 1015.8 1015.7 0.0
04/05:30am 23.5 27.2 21.4 88 1.4 E 4 6 2 3 1015.6 1015.5 0.0
04/05:00am 23.8 27.7 21.9 89 1.3 ENE 4 4 2 2 1015.4 1015.3 0.0
04/04:30am 23.8 27.9 22.2 91 1.1 SE 4 6 2 3 1015.3 1015.2 0.0
04/04:00am 22.9 26.2 21.5 92 0.9 SSE 6 6 3 3 1015.2 1015.1 0.0
04/03:30am 22.4 25.7 20.7 90 1.1 E 4 6 2 3 1014.9 1014.8 0.0
04/03:00am 22.4 25.2 20.9 91 1.0 ENE 7 7 4 4 1015.0 1014.9 0.0
04/02:30am 22.5 25.5 20.8 90 1.1 ENE 6 7 3 4 1014.9 1014.8 0.0
04/02:00am 22.4 25.1 20.7 90 1.1 E 7 9 4 5 1015.1 1015.0 0.0
04/01:30am 22.3 24.8 20.2 88 1.4 E 7 9 4 5 1015.3 1015.2 0.0
04/01:00am 22.7 25.4 20.2 86 1.6 E 6 6 3 3 1015.4 1015.3 0.0
04/12:30am 23.2 26.0 20.5 85 1.8 ENE 6 7 3 4 1015.8 1015.7 0.0
04/12:00am 23.8 27.5 20.7 83 2.0 NE 2 4 1 2 1015.8 1015.7 0.0
 
Date/Time
CST
Temp
°C
App
Temp
°C
Dew
Point
Rel
Hum
%
Delta-T
°C
Wind Press
QNH
hPa
Press
MSL
hPa
Rain
since 9 am
mm
Dir
 
Spd
km/h
Gust
km/h
Spd
kts
Gust
kts
03/11:30pm 24.4 27.5 21.1 82 2.2 NE 6 7 3 4 1015.8 1015.7 0.0
03/11:00pm 25.2 28.3 21.5 80 2.5 NNE 7 13 4 7 1015.9 1015.8 0.0
03/10:30pm 25.3 28.5 21.6 80 2.5 NNE 7 13 4 7 1015.9 1015.8 0.0
03/10:00pm 25.3 28.5 21.6 80 2.5 NNE 7 13 4 7 1015.9 1015.8 0.0
03/09:30pm 25.4 28.1 21.3 78 2.7 NNE 9 13 5 7 1016.0 1015.9 0.0
03/09:00pm 25.5 28.5 21.2 77 2.8 NNE 7 13 4 7 1015.9 1015.8 0.0
03/08:30pm 25.6 28.5 21.1 76 3.0 NE 7 13 4 7 1015.8 1015.7 0.0
03/08:00pm 25.3 28.3 20.8 76 3.0 NE 6 9 3 5 1015.5 1015.4 0.0
03/07:30pm 25.5 28.3 20.5 74 3.3 NE 6 9 3 5 1015.2 1015.1 0.0
03/07:00pm 26.1 29.1 20.9 73 3.4 NE 6 9 3 5 1014.7 1014.6 0.0
03/06:30pm 26.6 28.4 19.5 65 4.6 NE 9 15 5 8 1014.3 1014.2 0.0
03/06:00pm 27.9 29.2 19.4 60 5.5 NE 11 15 6 8 1014.3 1014.2 0.0
03/05:30pm 29.1 29.7 17.6 50 7.3 NE 11 19 6 10 1014.0 1013.9 0.0
03/05:00pm 29.2 30.6 18.6 52 6.8 N 9 13 5 7 1013.8 1013.7 0.0
03/04:30pm 29.2 30.2 19.5 56 6.3 NNW 13 17 7 9 1013.7 1013.6 0.0
03/04:00pm 28.9 30.4 20.6 61 5.5 NNW 13 19 7 10 1013.7 1013.6 0.0
03/03:30pm 29.4 31.3 20.5 58 5.9 NNW 11 17 6 9 1013.8 1013.7 0.0
03/03:00pm 30.8 33.3 21.0 56 6.5 NW 9 17 5 9 1014.0 1013.9 0.0
03/02:30pm 30.0 32.2 21.1 59 5.9 NW 11 15 6 8 1014.2 1014.1 0.0
03/02:00pm 30.5 33.0 21.0 57 6.3 WNW 9 13 5 7 1014.4 1014.3 0.0
03/01:30pm 30.0 32.4 20.8 57 6.1 W 9 13 5 7 1014.8 1014.7 0.0
03/01:00pm 29.5 31.7 20.4 58 6.0 WNW 9 13 5 7 1015.3 1015.2 0.0
03/12:30pm 29.2 31.6 20.9 61 5.5 WNW 9 15 5 8 1015.8 1015.7 0.0
03/12:00pm 28.7 31.3 20.4 60 5.5 W 7 13 4 7 1016.1 1016.0 0.0
03/11:30am 29.2 31.8 20.4 59 5.8 WNW 7 9 4 5 1016.6 1016.5 0.0
03/11:00am 28.5 31.1 20.5 62 5.3 W 7 9 4 5 1017.2 1017.1 0.0
03/10:30am 28.3 31.3 21.3 65 4.7 SW 7 9 4 5 1017.4 1017.3 0.0
03/10:00am 28.2 30.8 21.2 65 4.7 SW 9 11 5 6 1017.5 1017.4 0.0
03/09:30am 27.3 29.7 19.6 62 5.0 NNE 6 9 3 5 1017.3 1017.2 0.0
03/09:00am 27.2 29.9 20.3 66 4.5 NNE 6 7 3 4 1017.2 1017.1 0.0
03/08:30am 26.3 30.7 21.3 74 3.3 CALM 0 0 0 0 1017.1 1017.0 0.0
03/08:00am 25.4 30.0 21.7 80 2.5 CALM 0 0 0 0 1017.0 1016.9 0.0
03/07:30am 23.7 27.7 22.1 91 1.1 E 4 4 2 2 1016.7 1016.6 0.0
03/07:00am 21.6 24.8 20.4 93 0.8 E 4 4 2 2 1016.2 1016.1 0.0
03/06:30am 21.7 24.8 20.3 92 0.9 E 4 4 2 2 1016.0 1015.9 0.0
03/06:00am 21.9 25.1 20.4 91 1.0 E 4 4 2 2 1015.6 1015.5 0.0
03/05:30am 21.8 24.5 20.3 91 1.0 E 6 6 3 3 1015.2 1015.1 0.0
03/05:00am 21.9 25.0 20.2 90 1.1 E 4 6 2 3 1014.9 1014.8 0.0
03/04:30am 21.5 24.3 19.6 89 1.2 E 4 6 2 3 1014.9 1014.8 0.0
03/04:00am 22.1 25.2 20.2 89 1.2 E 4 4 2 2 1014.9 1014.8 0.0
03/03:30am 21.8 24.9 19.4 86 1.5 E 2 2 1 1 1014.8 1014.7 0.0
03/03:00am 21.9 24.1 19.1 84 1.8 E 6 6 3 3 1014.9 1014.8 0.0
03/02:30am 22.9 26.8 20.4 86 1.6 CALM 0 0 0 0 1015.1 1015.0 0.0
03/02:00am 23.3 27.4 20.8 86 1.6 CALM 0 0 0 0 1015.1 1015.0 0.0
03/01:30am 22.9 26.8 20.4 86 1.6 CALM 0 0 0 0 1015.1 1015.0 0.0
03/01:00am 22.3 25.2 19.1 82 2.0 NNE 2 4 1 2 1015.1 1015.0 0.0
03/12:30am 23.3 25.9 20.1 82 2.1 NE 6 6 3 3 1015.2 1015.1 0.0
03/12:00am 24.4 27.2 20.5 79 2.5 NE 6 9 3 5 1015.3 1015.2 0.0
 
Date/Time
CST
Temp
°C
App
Temp
°C
Dew
Point
Rel
Hum
%
Delta-T
°C
Wind Press
QNH
hPa
Press
MSL
hPa
Rain
since 9 am
mm
Dir
 
Spd
km/h
Gust
km/h
Spd
kts
Gust
kts
02/11:30pm 25.0 27.9 21.1 79 2.6 NNE 7 13 4 7 1015.2 1015.1 0.0
02/11:00pm 25.2 27.6 20.9 77 2.8 NNE 9 13 5 7 1015.0 1014.9 0.0
02/10:30pm 25.1 27.1 20.8 77 2.8 NNE 11 17 6 9 1014.9 1014.8 0.0
02/10:00pm 25.0 27.3 20.7 77 2.8 NNE 9 13 5 7 1014.8 1014.7 0.0
02/09:30pm 25.1 27.9 20.4 75 3.1 NNE 6 9 3 5 1014.6 1014.5 0.0
02/09:00pm 24.8 27.4 20.5 77 2.8 NNE 7 9 4 5 1014.3 1014.2 0.0
02/08:30pm 25.1 28.0 20.6 76 2.9 NNE 6 7 3 4 1014.2 1014.1 0.0
02/08:00pm 25.4 28.5 20.2 73 3.4 NNE 4 6 2 3 1014.0 1013.9 0.0
02/07:30pm 25.8 28.4 20.1 71 3.7 NE 6 7 3 4 1013.5 1013.4 0.0
02/07:00pm 26.2 28.6 20.1 69 4.0 NNE 7 9 4 5 1013.2 1013.1 0.0
02/06:30pm 26.9 28.9 20.0 66 4.5 NNE 9 11 5 6 1012.9 1012.8 0.0
02/06:00pm 27.8 29.2 19.6 61 5.3 NNE 11 17 6 9 1012.7 1012.6 0.0
02/05:30pm 28.8 30.2 20.3 60 5.6 NNE 13 17 7 9 1012.5 1012.4 0.0
02/05:00pm 29.4 30.4 19.4 55 6.5 N 13 19 7 10 1012.2 1012.1 0.0
02/04:30pm 30.3 30.7 18.1 48 7.8 N 13 17 7 9 1012.1 1012.0 0.0
02/04:00pm 30.8 31.5 18.8 48 7.8 N 13 17 7 9 1012.1 1012.0 0.0
02/03:30pm 30.7 31.7 19.4 51 7.4 N 13 19 7 10 1012.3 1012.2 0.0
02/03:00pm 30.4 31.0 20.3 54 6.7 NNW 17 24 9 13 1012.5 1012.4 0.0
02/02:30pm 31.0 32.3 20.9 55 6.7 NNW 15 22 8 12 1013.0 1012.9 0.0
02/02:00pm 30.8 32.1 20.1 53 7.1 NNW 13 17 7 9 1013.4 1013.3 0.0
02/01:30pm 30.2 31.5 20.2 55 6.6 NNW 13 20 7 11 1014.0 1013.9 0.0
02/01:00pm 31.1 32.6 18.8 48 8.0 NNW 9 17 5 9 1014.5 1014.4 0.0
02/12:30pm 30.3 33.1 20.5 55 6.5 W 6 9 3 5 1015.2 1015.1 0.0
02/12:00pm 28.7 30.7 19.9 59 5.8 WSW 9 11 5 6 1015.6 1015.5 0.0
02/11:30am 29.6 31.8 20.5 58 6.0 WSW 9 11 5 6 1015.9 1015.8 0.0
02/11:00am 28.3 31.1 20.8 63 5.0 WSW 7 9 4 5 1016.4 1016.3 0.0
02/10:30am 27.9 31.6 22.2 71 3.8 WSW 6 7 3 4 1016.6 1016.5 0.0
02/10:00am 27.6 31.3 22.3 73 3.6 SW 6 6 3 3 1016.7 1016.6 0.0
02/09:30am 26.9 31.0 22.3 76 3.1 WSW 4 6 2 3 1016.5 1016.4 0.0
02/09:00am 26.6 30.3 22.2 77 3.0 WSW 6 7 3 4 1016.4 1016.3 0.0
02/08:30am 26.2 30.3 22.3 79 2.6 WSW 4 7 2 4 1016.1 1016.0 0.0
02/08:00am 25.7 29.5 22.4 82 2.2 WSW 6 7 3 4 1015.8 1015.7 0.0
02/07:30am 24.9 28.4 22.2 85 1.8 WSW 7 9 4 5 1015.4 1015.3 0.0
02/07:00am 24.3 27.2 21.8 86 1.7 SW 9 11 5 6 1015.2 1015.1 0.0
02/06:30am 24.2 27.2 21.9 87 1.5 SW 9 11 5 6 1014.8 1014.7 0.0
02/06:00am 21.7 24.8 20.3 92 0.9 S 4 4 2 2 1014.6 1014.5 0.0
02/05:30am 21.4 24.3 19.9 91 1.0 SE 4 6 2 3 1014.3 1014.2 0.0
02/05:00am 21.4 23.7 19.5 89 1.2 ESE 6 6 3 3 1014.0 1013.9 0.0
02/04:30am 24.3 27.4 21.4 84 1.9 SSW 7 9 4 5 1014.1 1014.0 0.0
02/04:00am 24.4 27.7 21.9 86 1.7 SW 7 13 4 7 1014.1 1014.0 0.0
02/03:30am 23.1 26.0 20.6 86 1.6 S 6 9 3 5 1014.0 1013.9 0.0
02/03:00am 24.5 27.5 21.2 82 2.2 SW 7 9 4 5 1014.0 1013.9 0.0
02/02:30am 25.0 28.2 21.7 82 2.2 SW 7 11 4 6 1014.1 1014.0 0.0
02/02:00am 25.0 28.0 21.3 80 2.4 W 7 11 4 6 1014.1 1014.0 0.0
02/01:30am 24.7 27.4 20.2 76 2.9 NW 6 7 3 4 1014.3 1014.2 0.0
02/01:00am 24.7 27.2 20.2 76 2.9 NW 7 9 4 5 1014.4 1014.3 0.0
02/12:30am 24.7 27.4 20.2 76 2.9 NW 6 9 3 5 1014.5 1014.4 0.0
02/12:00am 25.1 27.7 20.4 75 3.1 N 7 9 4 5 1014.4 1014.3 0.0

Other Formats:

Comma delimited format used in spreadsheet applications
http://www.bom.gov.au/fwo/IDD60801/IDD60801.94108.axf

JavaScript Object Notation format (JSON) in row-major order
http://www.bom.gov.au/fwo/IDD60801/IDD60801.94108.json